In Rescue
 
Open Full Screen Window  High Contrast Mode
Wind Gusting 00 knots
10
January 17, 2021 1:36 PM CST
Weather Information
Wind Direction
  340 °
Wind Speed
  10 kt (12 mph)
Wind Gust
  00 kt (0 mph)
Altimeter
29.83 in
Visibility
10 SM
Temperature
-01° C
30° F
Dewpoint
-03° C
27° F
Humidity
86%
1hr Rain Fall
00.00 in.
24hr Rain Fall
00.00 in.
Sky Condition
Overcast @ 1,400 ft
MVFR

METAR KDXX 171936Z AUTO 34010KT 10SM OVC014 M01/M03 A2983 RMK AO2 PWINO

FAA Disclaimer: The data displayed is for advisory purposes only and is not to be used for flight planning or operations.